sensor_id;sensor_type;location;lat;lon;timestamp;P1;durP1;ratioP1;P2;durP2;ratioP2
31782;SDS011;18351;47.560;9.708;2023-12-28T00:02:02;31.17;;;18.98;;
31782;SDS011;18351;47.560;9.708;2023-12-28T00:04:28;32.90;;;19.80;;
31782;SDS011;18351;47.560;9.708;2023-12-28T00:06:53;30.73;;;19.60;;
31782;SDS011;18351;47.560;9.708;2023-12-28T00:09:19;31.92;;;18.05;;
31782;SDS011;18351;47.560;9.708;2023-12-28T00:11:44;32.90;;;18.63;;
31782;SDS011;18351;47.560;9.708;2023-12-28T00:14:10;32.35;;;19.38;;
31782;SDS011;18351;47.560;9.708;2023-12-28T00:16:35;33.72;;;18.60;;
31782;SDS011;18351;47.560;9.708;2023-12-28T00:19:02;35.28;;;19.25;;
31782;SDS011;18351;47.560;9.708;2023-12-28T00:21:29;30.02;;;18.55;;
31782;SDS011;18351;47.560;9.708;2023-12-28T00:23:55;29.48;;;18.08;;
31782;SDS011;18351;47.560;9.708;2023-12-28T00:26:20;30.40;;;19.35;;
31782;SDS011;18351;47.560;9.708;2023-12-28T00:28:46;33.50;;;20.17;;
31782;SDS011;18351;47.560;9.708;2023-12-28T00:31:12;42.72;;;21.13;;
31782;SDS011;18351;47.560;9.708;2023-12-28T00:33:38;34.33;;;19.77;;
31782;SDS011;18351;47.560;9.708;2023-12-28T00:36:03;30.95;;;18.08;;
31782;SDS011;18351;47.560;9.708;2023-12-28T00:38:29;26.30;;;16.98;;
31782;SDS011;18351;47.560;9.708;2023-12-28T00:40:55;26.73;;;17.02;;
31782;SDS011;18351;47.560;9.708;2023-12-28T00:43:20;25.75;;;16.13;;
31782;SDS011;18351;47.560;9.708;2023-12-28T00:45:46;27.10;;;16.45;;
31782;SDS011;18351;47.560;9.708;2023-12-28T00:48:11;28.80;;;16.23;;
31782;SDS011;18351;47.560;9.708;2023-12-28T00:50:37;26.50;;;16.10;;
31782;SDS011;18351;47.560;9.708;2023-12-28T00:53:02;24.13;;;16.00;;
31782;SDS011;18351;47.560;9.708;2023-12-28T00:55:28;24.75;;;15.73;;
31782;SDS011;18351;47.560;9.708;2023-12-28T00:57:53;24.23;;;15.48;;
31782;SDS011;18351;47.560;9.708;2023-12-28T01:00:19;23.10;;;14.23;;
31782;SDS011;18351;47.560;9.708;2023-12-28T01:02:45;22.10;;;14.82;;
31782;SDS011;18351;47.560;9.708;2023-12-28T01:05:14;23.00;;;14.63;;
31782;SDS011;18351;47.560;9.708;2023-12-28T01:07:39;25.67;;;15.10;;
31782;SDS011;18351;47.560;9.708;2023-12-28T01:10:05;22.98;;;13.75;;
31782;SDS011;18351;47.560;9.708;2023-12-28T01:12:31;20.17;;;13.77;;
31782;SDS011;18351;47.560;9.708;2023-12-28T01:14:57;24.00;;;14.70;;
31782;SDS011;18351;47.560;9.708;2023-12-28T01:17:22;20.75;;;14.02;;
31782;SDS011;18351;47.560;9.708;2023-12-28T01:19:48;24.15;;;14.68;;
31782;SDS011;18351;47.560;9.708;2023-12-28T01:22:13;20.38;;;13.95;;
31782;SDS011;18351;47.560;9.708;2023-12-28T01:24:39;20.27;;;13.25;;
31782;SDS011;18351;47.560;9.708;2023-12-28T01:27:04;18.80;;;13.10;;
31782;SDS011;18351;47.560;9.708;2023-12-28T01:29:30;20.60;;;13.32;;
31782;SDS011;18351;47.560;9.708;2023-12-28T01:31:55;20.40;;;12.80;;
31782;SDS011;18351;47.560;9.708;2023-12-28T01:34:21;28.95;;;14.48;;
31782;SDS011;18351;47.560;9.708;2023-12-28T01:36:47;20.60;;;13.30;;
31782;SDS011;18351;47.560;9.708;2023-12-28T01:39:13;22.27;;;14.43;;
31782;SDS011;18351;47.560;9.708;2023-12-28T01:41:40;20.55;;;13.50;;
31782;SDS011;18351;47.560;9.708;2023-12-28T01:44:06;27.02;;;13.95;;
31782;SDS011;18351;47.560;9.708;2023-12-28T01:46:31;24.23;;;13.32;;
31782;SDS011;18351;47.560;9.708;2023-12-28T01:48:58;21.88;;;13.57;;
31782;SDS011;18351;47.560;9.708;2023-12-28T01:51:24;21.23;;;12.65;;
31782;SDS011;18351;47.560;9.708;2023-12-28T01:53:50;17.73;;;10.88;;
31782;SDS011;18351;47.560;9.708;2023-12-28T01:56:17;15.25;;;10.90;;
31782;SDS011;18351;47.560;9.708;2023-12-28T01:58:44;20.02;;;11.48;;
31782;SDS011;18351;47.560;9.708;2023-12-28T02:01:13;16.55;;;10.32;;
31782;SDS011;18351;47.560;9.708;2023-12-28T02:03:38;16.98;;;11.13;;
31782;SDS011;18351;47.560;9.708;2023-12-28T02:06:04;17.98;;;10.98;;
31782;SDS011;18351;47.560;9.708;2023-12-28T02:08:31;18.15;;;10.75;;
31782;SDS011;18351;47.560;9.708;2023-12-28T02:10:57;20.45;;;10.25;;
31782;SDS011;18351;47.560;9.708;2023-12-28T02:13:23;14.48;;;9.60;;
31782;SDS011;18351;47.560;9.708;2023-12-28T02:15:54;15.00;;;10.75;;
31782;SDS011;18351;47.560;9.708;2023-12-28T02:18:30;19.65;;;9.77;;
31782;SDS011;18351;47.560;9.708;2023-12-28T02:21:03;14.90;;;8.88;;
31782;SDS011;18351;47.560;9.708;2023-12-28T02:23:32;13.07;;;9.00;;
31782;SDS011;18351;47.560;9.708;2023-12-28T02:25:58;16.90;;;10.80;;
31782;SDS011;18351;47.560;9.708;2023-12-28T02:28:23;14.02;;;9.27;;
31782;SDS011;18351;47.560;9.708;2023-12-28T02:30:49;13.73;;;8.80;;
31782;SDS011;18351;47.560;9.708;2023-12-28T02:35:55;14.95;;;9.25;;
31782;SDS011;18351;47.560;9.708;2023-12-28T02:38:24;20.17;;;10.25;;
31782;SDS011;18351;47.560;9.708;2023-12-28T02:40:50;34.60;;;15.98;;
31782;SDS011;18351;47.560;9.708;2023-12-28T02:43:17;13.85;;;8.93;;
31782;SDS011;18351;47.560;9.708;2023-12-28T02:45:42;12.32;;;8.05;;
31782;SDS011;18351;47.560;9.708;2023-12-28T02:48:08;12.30;;;8.02;;
31782;SDS011;18351;47.560;9.708;2023-12-28T02:50:33;13.68;;;8.30;;
31782;SDS011;18351;47.560;9.708;2023-12-28T02:53:00;14.80;;;8.00;;
31782;SDS011;18351;47.560;9.708;2023-12-28T02:55:25;12.63;;;8.73;;
31782;SDS011;18351;47.560;9.708;2023-12-28T02:57:52;18.90;;;10.75;;
31782;SDS011;18351;47.560;9.708;2023-12-28T03:00:24;15.65;;;8.82;;
31782;SDS011;18351;47.560;9.708;2023-12-28T03:02:50;14.10;;;8.63;;
31782;SDS011;18351;47.560;9.708;2023-12-28T03:05:15;15.15;;;8.73;;
31782;SDS011;18351;47.560;9.708;2023-12-28T03:07:41;12.40;;;7.88;;
31782;SDS011;18351;47.560;9.708;2023-12-28T03:10:07;10.77;;;6.95;;
31782;SDS011;18351;47.560;9.708;2023-12-28T03:12:33;11.45;;;7.22;;
31782;SDS011;18351;47.560;9.708;2023-12-28T03:14:59;11.70;;;7.57;;
31782;SDS011;18351;47.560;9.708;2023-12-28T03:17:24;12.18;;;6.55;;
31782;SDS011;18351;47.560;9.708;2023-12-28T03:19:51;8.43;;;6.45;;
31782;SDS011;18351;47.560;9.708;2023-12-28T03:22:16;10.68;;;6.57;;
31782;SDS011;18351;47.560;9.708;2023-12-28T03:24:42;10.02;;;6.90;;
31782;SDS011;18351;47.560;9.708;2023-12-28T03:27:08;8.25;;;6.35;;
31782;SDS011;18351;47.560;9.708;2023-12-28T03:29:34;10.43;;;6.90;;
31782;SDS011;18351;47.560;9.708;2023-12-28T03:31:59;10.95;;;7.00;;
31782;SDS011;18351;47.560;9.708;2023-12-28T03:34:25;10.27;;;7.10;;
31782;SDS011;18351;47.560;9.708;2023-12-28T03:36:55;9.82;;;6.63;;
31782;SDS011;18351;47.560;9.708;2023-12-28T03:39:21;11.73;;;7.70;;
31782;SDS011;18351;47.560;9.708;2023-12-28T03:41:49;12.90;;;6.60;;
31782;SDS011;18351;47.560;9.708;2023-12-28T03:44:15;10.95;;;6.50;;
31782;SDS011;18351;47.560;9.708;2023-12-28T03:46:40;8.77;;;6.28;;
31782;SDS011;18351;47.560;9.708;2023-12-28T03:49:06;11.05;;;6.82;;
31782;SDS011;18351;47.560;9.708;2023-12-28T03:51:31;9.65;;;6.95;;
31782;SDS011;18351;47.560;9.708;2023-12-28T03:53:57;10.85;;;6.78;;
31782;SDS011;18351;47.560;9.708;2023-12-28T03:56:23;9.88;;;6.70;;
31782;SDS011;18351;47.560;9.708;2023-12-28T03:58:50;13.02;;;7.38;;
31782;SDS011;18351;47.560;9.708;2023-12-28T04:01:20;9.52;;;6.63;;
31782;SDS011;18351;47.560;9.708;2023-12-28T04:03:47;9.43;;;6.40;;
31782;SDS011;18351;47.560;9.708;2023-12-28T04:06:13;8.75;;;6.65;;
31782;SDS011;18351;47.560;9.708;2023-12-28T04:08:39;13.23;;;7.10;;
31782;SDS011;18351;47.560;9.708;2023-12-28T04:11:08;12.00;;;7.13;;
31782;SDS011;18351;47.560;9.708;2023-12-28T04:13:34;11.77;;;7.55;;
31782;SDS011;18351;47.560;9.708;2023-12-28T04:16:00;10.23;;;7.28;;
31782;SDS011;18351;47.560;9.708;2023-12-28T04:18:27;10.35;;;7.35;;
31782;SDS011;18351;47.560;9.708;2023-12-28T04:20:53;11.55;;;7.22;;
31782;SDS011;18351;47.560;9.708;2023-12-28T04:23:19;10.52;;;7.50;;
31782;SDS011;18351;47.560;9.708;2023-12-28T04:25:45;11.98;;;7.88;;
31782;SDS011;18351;47.560;9.708;2023-12-28T04:28:10;15.75;;;7.88;;
31782;SDS011;18351;47.560;9.708;2023-12-28T04:30:36;12.90;;;7.60;;
31782;SDS011;18351;47.560;9.708;2023-12-28T04:33:01;13.75;;;8.15;;
31782;SDS011;18351;47.560;9.708;2023-12-28T04:35:27;12.73;;;8.40;;
31782;SDS011;18351;47.560;9.708;2023-12-28T04:37:53;11.40;;;7.25;;
31782;SDS011;18351;47.560;9.708;2023-12-28T04:40:19;12.20;;;7.80;;
31782;SDS011;18351;47.560;9.708;2023-12-28T04:42:45;12.38;;;7.53;;
31782;SDS011;18351;47.560;9.708;2023-12-28T04:45:10;9.98;;;7.40;;
31782;SDS011;18351;47.560;9.708;2023-12-28T04:47:36;11.75;;;7.30;;
31782;SDS011;18351;47.560;9.708;2023-12-28T04:50:02;13.65;;;7.35;;
31782;SDS011;18351;47.560;9.708;2023-12-28T04:52:28;10.05;;;6.97;;
31782;SDS011;18351;47.560;9.708;2023-12-28T04:54:54;15.40;;;8.02;;
31782;SDS011;18351;47.560;9.708;2023-12-28T04:57:20;9.95;;;6.97;;
31782;SDS011;18351;47.560;9.708;2023-12-28T04:59:45;10.10;;;6.72;;
31782;SDS011;18351;47.560;9.708;2023-12-28T05:02:11;9.77;;;7.10;;
31782;SDS011;18351;47.560;9.708;2023-12-28T05:04:37;10.90;;;6.90;;
31782;SDS011;18351;47.560;9.708;2023-12-28T05:07:05;11.40;;;6.28;;
31782;SDS011;18351;47.560;9.708;2023-12-28T05:09:30;10.27;;;6.60;;
31782;SDS011;18351;47.560;9.708;2023-12-28T05:11:56;8.85;;;6.35;;
31782;SDS011;18351;47.560;9.708;2023-12-28T05:14:22;10.05;;;6.72;;
31782;SDS011;18351;47.560;9.708;2023-12-28T05:16:47;9.43;;;6.85;;
31782;SDS011;18351;47.560;9.708;2023-12-28T05:19:13;10.27;;;6.70;;
31782;SDS011;18351;47.560;9.708;2023-12-28T05:21:38;12.88;;;6.63;;
31782;SDS011;18351;47.560;9.708;2023-12-28T05:24:04;7.60;;;6.07;;
31782;SDS011;18351;47.560;9.708;2023-12-28T05:26:30;10.50;;;6.82;;
31782;SDS011;18351;47.560;9.708;2023-12-28T05:28:55;11.23;;;5.68;;
31782;SDS011;18351;47.560;9.708;2023-12-28T05:31:21;11.60;;;5.70;;
31782;SDS011;18351;47.560;9.708;2023-12-28T05:33:46;9.45;;;6.18;;
31782;SDS011;18351;47.560;9.708;2023-12-28T05:36:12;9.80;;;6.28;;
31782;SDS011;18351;47.560;9.708;2023-12-28T05:38:38;11.07;;;5.80;;
31782;SDS011;18351;47.560;9.708;2023-12-28T05:41:03;6.70;;;5.07;;
31782;SDS011;18351;47.560;9.708;2023-12-28T05:43:29;8.05;;;5.00;;
31782;SDS011;18351;47.560;9.708;2023-12-28T05:45:54;8.40;;;5.47;;
31782;SDS011;18351;47.560;9.708;2023-12-28T05:48:20;6.43;;;5.07;;
31782;SDS011;18351;47.560;9.708;2023-12-28T05:50:45;7.45;;;4.78;;
31782;SDS011;18351;47.560;9.708;2023-12-28T05:53:11;7.55;;;4.93;;
31782;SDS011;18351;47.560;9.708;2023-12-28T05:55:39;8.20;;;4.80;;
31782;SDS011;18351;47.560;9.708;2023-12-28T05:58:08;6.05;;;4.13;;
31782;SDS011;18351;47.560;9.708;2023-12-28T06:00:34;9.68;;;4.85;;
31782;SDS011;18351;47.560;9.708;2023-12-28T06:03:01;7.10;;;4.30;;
31782;SDS011;18351;47.560;9.708;2023-12-28T06:05:27;5.25;;;4.13;;
31782;SDS011;18351;47.560;9.708;2023-12-28T06:07:53;5.00;;;3.67;;
31782;SDS011;18351;47.560;9.708;2023-12-28T06:10:18;4.32;;;3.35;;
31782;SDS011;18351;47.560;9.708;2023-12-28T06:12:44;5.25;;;3.63;;
31782;SDS011;18351;47.560;9.708;2023-12-28T06:15:09;4.93;;;3.63;;
31782;SDS011;18351;47.560;9.708;2023-12-28T06:17:35;4.28;;;3.25;;
31782;SDS011;18351;47.560;9.708;2023-12-28T06:20:00;4.82;;;3.63;;
31782;SDS011;18351;47.560;9.708;2023-12-28T06:22:26;4.43;;;3.20;;
31782;SDS011;18351;47.560;9.708;2023-12-28T06:24:53;3.72;;;2.95;;
31782;SDS011;18351;47.560;9.708;2023-12-28T06:27:19;5.15;;;3.47;;
31782;SDS011;18351;47.560;9.708;2023-12-28T06:29:45;4.75;;;3.42;;
31782;SDS011;18351;47.560;9.708;2023-12-28T06:32:11;4.85;;;4.10;;
31782;SDS011;18351;47.560;9.708;2023-12-28T06:34:36;5.35;;;3.40;;
31782;SDS011;18351;47.560;9.708;2023-12-28T06:37:02;5.00;;;3.33;;
31782;SDS011;18351;47.560;9.708;2023-12-28T06:39:28;5.28;;;3.05;;
31782;SDS011;18351;47.560;9.708;2023-12-28T06:41:53;6.00;;;3.05;;
31782;SDS011;18351;47.560;9.708;2023-12-28T06:44:19;6.75;;;2.88;;
31782;SDS011;18351;47.560;9.708;2023-12-28T06:46:44;8.20;;;3.10;;
31782;SDS011;18351;47.560;9.708;2023-12-28T06:49:10;4.80;;;3.22;;
31782;SDS011;18351;47.560;9.708;2023-12-28T06:51:35;7.35;;;4.55;;
31782;SDS011;18351;47.560;9.708;2023-12-28T06:54:01;9.85;;;5.72;;
31782;SDS011;18351;47.560;9.708;2023-12-28T06:56:27;10.93;;;4.95;;
31782;SDS011;18351;47.560;9.708;2023-12-28T06:58:53;13.13;;;8.50;;
31782;SDS011;18351;47.560;9.708;2023-12-28T07:01:19;18.13;;;12.85;;
31782;SDS011;18351;47.560;9.708;2023-12-28T07:03:44;11.02;;;8.55;;
31782;SDS011;18351;47.560;9.708;2023-12-28T07:06:10;11.65;;;7.35;;
31782;SDS011;18351;47.560;9.708;2023-12-28T07:08:35;7.75;;;5.07;;
31782;SDS011;18351;47.560;9.708;2023-12-28T07:11:01;7.78;;;5.88;;
31782;SDS011;18351;47.560;9.708;2023-12-28T07:13:28;7.40;;;5.40;;
31782;SDS011;18351;47.560;9.708;2023-12-28T07:15:54;14.30;;;9.77;;
31782;SDS011;18351;47.560;9.708;2023-12-28T07:18:20;11.40;;;6.43;;
31782;SDS011;18351;47.560;9.708;2023-12-28T07:20:45;9.82;;;7.25;;
31782;SDS011;18351;47.560;9.708;2023-12-28T07:23:11;5.47;;;4.70;;
31782;SDS011;18351;47.560;9.708;2023-12-28T07:25:37;11.57;;;7.72;;
31782;SDS011;18351;47.560;9.708;2023-12-28T07:28:02;5.55;;;4.47;;
31782;SDS011;18351;47.560;9.708;2023-12-28T07:30:28;18.70;;;14.27;;
31782;SDS011;18351;47.560;9.708;2023-12-28T07:32:54;6.80;;;4.78;;
31782;SDS011;18351;47.560;9.708;2023-12-28T07:35:20;9.27;;;4.97;;
31782;SDS011;18351;47.560;9.708;2023-12-28T07:37:46;6.85;;;4.30;;
31782;SDS011;18351;47.560;9.708;2023-12-28T07:40:11;5.82;;;4.18;;
31782;SDS011;18351;47.560;9.708;2023-12-28T07:42:37;5.28;;;4.05;;
31782;SDS011;18351;47.560;9.708;2023-12-28T07:45:03;4.95;;;3.58;;
31782;SDS011;18351;47.560;9.708;2023-12-28T07:47:29;7.88;;;5.20;;
31782;SDS011;18351;47.560;9.708;2023-12-28T07:49:55;9.48;;;5.65;;
31782;SDS011;18351;47.560;9.708;2023-12-28T07:52:20;6.90;;;4.65;;
31782;SDS011;18351;47.560;9.708;2023-12-28T07:54:46;8.15;;;3.90;;
31782;SDS011;18351;47.560;9.708;2023-12-28T07:57:12;4.55;;;3.13;;
31782;SDS011;18351;47.560;9.708;2023-12-28T07:59:37;4.30;;;2.70;;
31782;SDS011;18351;47.560;9.708;2023-12-28T08:02:03;6.68;;;3.00;;
31782;SDS011;18351;47.560;9.708;2023-12-28T08:04:29;4.28;;;2.78;;
31782;SDS011;18351;47.560;9.708;2023-12-28T08:06:54;6.95;;;2.47;;
31782;SDS011;18351;47.560;9.708;2023-12-28T08:09:20;3.47;;;2.90;;
31782;SDS011;18351;47.560;9.708;2023-12-28T08:11:45;5.53;;;2.78;;
31782;SDS011;18351;47.560;9.708;2023-12-28T08:14:11;6.32;;;3.05;;
31782;SDS011;18351;47.560;9.708;2023-12-28T08:16:36;5.82;;;4.20;;
31782;SDS011;18351;47.560;9.708;2023-12-28T08:19:02;7.53;;;4.47;;
31782;SDS011;18351;47.560;9.708;2023-12-28T08:21:28;11.25;;;7.18;;
31782;SDS011;18351;47.560;9.708;2023-12-28T08:23:54;9.38;;;6.75;;
31782;SDS011;18351;47.560;9.708;2023-12-28T08:26:19;13.10;;;7.43;;
31782;SDS011;18351;47.560;9.708;2023-12-28T08:28:45;12.63;;;8.77;;
31782;SDS011;18351;47.560;9.708;2023-12-28T08:31:10;13.93;;;9.57;;
31782;SDS011;18351;47.560;9.708;2023-12-28T08:33:37;13.77;;;9.75;;
31782;SDS011;18351;47.560;9.708;2023-12-28T08:36:06;13.90;;;10.02;;
31782;SDS011;18351;47.560;9.708;2023-12-28T08:38:32;16.05;;;11.68;;
31782;SDS011;18351;47.560;9.708;2023-12-28T08:40:58;17.15;;;13.15;;
31782;SDS011;18351;47.560;9.708;2023-12-28T08:43:23;17.70;;;12.73;;
31782;SDS011;18351;47.560;9.708;2023-12-28T08:45:49;19.30;;;13.60;;
31782;SDS011;18351;47.560;9.708;2023-12-28T08:48:14;19.83;;;14.00;;
31782;SDS011;18351;47.560;9.708;2023-12-28T08:50:40;19.42;;;14.10;;
31782;SDS011;18351;47.560;9.708;2023-12-28T08:53:06;21.27;;;14.02;;
31782;SDS011;18351;47.560;9.708;2023-12-28T08:55:31;19.42;;;13.68;;
31782;SDS011;18351;47.560;9.708;2023-12-28T08:57:58;18.83;;;13.35;;
31782;SDS011;18351;47.560;9.708;2023-12-28T09:00:24;23.63;;;15.05;;
31782;SDS011;18351;47.560;9.708;2023-12-28T09:02:50;22.05;;;15.35;;
31782;SDS011;18351;47.560;9.708;2023-12-28T09:05:16;35.35;;;23.90;;
31782;SDS011;18351;47.560;9.708;2023-12-28T09:07:42;42.05;;;28.00;;
31782;SDS011;18351;47.560;9.708;2023-12-28T09:10:09;26.30;;;17.88;;
31782;SDS011;18351;47.560;9.708;2023-12-28T09:12:35;19.63;;;14.60;;
31782;SDS011;18351;47.560;9.708;2023-12-28T09:15:01;15.48;;;12.32;;
31782;SDS011;18351;47.560;9.708;2023-12-28T09:17:27;16.05;;;11.55;;
31782;SDS011;18351;47.560;9.708;2023-12-28T09:19:52;17.45;;;12.07;;
31782;SDS011;18351;47.560;9.708;2023-12-28T09:22:18;16.23;;;10.77;;
31782;SDS011;18351;47.560;9.708;2023-12-28T09:24:43;13.75;;;9.82;;
31782;SDS011;18351;47.560;9.708;2023-12-28T09:27:09;12.45;;;9.48;;
31782;SDS011;18351;47.560;9.708;2023-12-28T09:29:34;11.13;;;8.30;;
31782;SDS011;18351;47.560;9.708;2023-12-28T09:32:00;12.93;;;9.00;;
31782;SDS011;18351;47.560;9.708;2023-12-28T09:34:26;10.45;;;8.23;;
31782;SDS011;18351;47.560;9.708;2023-12-28T09:36:51;11.02;;;7.95;;
31782;SDS011;18351;47.560;9.708;2023-12-28T09:39:17;11.57;;;8.38;;
31782;SDS011;18351;47.560;9.708;2023-12-28T09:41:43;17.75;;;12.02;;
31782;SDS011;18351;47.560;9.708;2023-12-28T09:44:14;11.32;;;9.02;;
31782;SDS011;18351;47.560;9.708;2023-12-28T09:46:42;9.60;;;7.20;;
31782;SDS011;18351;47.560;9.708;2023-12-28T09:49:08;14.35;;;8.80;;
31782;SDS011;18351;47.560;9.708;2023-12-28T09:51:34;11.32;;;7.00;;
31782;SDS011;18351;47.560;9.708;2023-12-28T09:54:00;12.13;;;9.70;;
31782;SDS011;18351;47.560;9.708;2023-12-28T09:56:27;9.52;;;7.55;;
31782;SDS011;18351;47.560;9.708;2023-12-28T09:58:53;10.35;;;8.15;;
31782;SDS011;18351;47.560;9.708;2023-12-28T10:01:21;10.65;;;5.60;;
31782;SDS011;18351;47.560;9.708;2023-12-28T10:03:47;6.50;;;5.30;;
31782;SDS011;18351;47.560;9.708;2023-12-28T10:06:12;7.82;;;5.43;;
31782;SDS011;18351;47.560;9.708;2023-12-28T10:08:44;7.25;;;4.95;;
31782;SDS011;18351;47.560;9.708;2023-12-28T10:11:17;8.57;;;4.75;;
31782;SDS011;18351;47.560;9.708;2023-12-28T10:13:43;6.72;;;5.05;;
31782;SDS011;18351;47.560;9.708;2023-12-28T10:16:10;7.72;;;5.13;;
31782;SDS011;18351;47.560;9.708;2023-12-28T10:18:40;6.18;;;4.57;;
31782;SDS011;18351;47.560;9.708;2023-12-28T10:21:08;5.13;;;4.10;;
31782;SDS011;18351;47.560;9.708;2023-12-28T10:23:34;5.80;;;4.07;;
31782;SDS011;18351;47.560;9.708;2023-12-28T10:26:00;5.57;;;4.07;;
31782;SDS011;18351;47.560;9.708;2023-12-28T10:28:26;5.32;;;3.85;;
31782;SDS011;18351;47.560;9.708;2023-12-28T10:30:55;13.45;;;8.35;;
31782;SDS011;18351;47.560;9.708;2023-12-28T10:33:21;10.40;;;6.32;;
31782;SDS011;18351;47.560;9.708;2023-12-28T10:35:47;9.65;;;5.60;;
31782;SDS011;18351;47.560;9.708;2023-12-28T10:38:17;6.22;;;4.30;;
31782;SDS011;18351;47.560;9.708;2023-12-28T10:40:44;5.82;;;3.78;;
31782;SDS011;18351;47.560;9.708;2023-12-28T10:43:16;5.28;;;3.67;;
31782;SDS011;18351;47.560;9.708;2023-12-28T10:45:42;5.18;;;3.80;;
31782;SDS011;18351;47.560;9.708;2023-12-28T10:48:12;8.40;;;4.03;;
31782;SDS011;18351;47.560;9.708;2023-12-28T10:50:39;11.98;;;3.90;;
31782;SDS011;18351;47.560;9.708;2023-12-28T10:53:09;8.63;;;4.10;;
31782;SDS011;18351;47.560;9.708;2023-12-28T10:56:00;7.60;;;4.18;;
31782;SDS011;18351;47.560;9.708;2023-12-28T10:58:49;6.38;;;4.63;;
31782;SDS011;18351;47.560;9.708;2023-12-28T11:01:22;10.50;;;4.90;;
31782;SDS011;18351;47.560;9.708;2023-12-28T11:04:01;9.93;;;4.65;;
31782;SDS011;18351;47.560;9.708;2023-12-28T11:06:30;9.23;;;5.05;;
31782;SDS011;18351;47.560;9.708;2023-12-28T11:08:57;11.23;;;5.38;;
31782;SDS011;18351;47.560;9.708;2023-12-28T11:11:25;11.93;;;7.32;;
31782;SDS011;18351;47.560;9.708;2023-12-28T11:13:52;14.85;;;8.55;;
31782;SDS011;18351;47.560;9.708;2023-12-28T11:16:20;24.10;;;10.38;;
31782;SDS011;18351;47.560;9.708;2023-12-28T11:18:47;17.25;;;9.52;;
31782;SDS011;18351;47.560;9.708;2023-12-28T11:21:14;15.27;;;8.85;;
31782;SDS011;18351;47.560;9.708;2023-12-28T11:23:41;15.32;;;9.57;;
31782;SDS011;18351;47.560;9.708;2023-12-28T11:26:21;12.10;;;8.25;;
31782;SDS011;18351;47.560;9.708;2023-12-28T11:28:47;14.20;;;9.80;;
31782;SDS011;18351;47.560;9.708;2023-12-28T11:31:13;13.18;;;9.15;;
31782;SDS011;18351;47.560;9.708;2023-12-28T11:33:46;13.68;;;9.60;;
31782;SDS011;18351;47.560;9.708;2023-12-28T11:36:20;16.60;;;9.90;;
31782;SDS011;18351;47.560;9.708;2023-12-28T11:41:17;13.88;;;9.80;;
31782;SDS011;18351;47.560;9.708;2023-12-28T11:43:51;17.52;;;10.23;;
31782;SDS011;18351;47.560;9.708;2023-12-28T11:46:22;17.67;;;11.18;;
31782;SDS011;18351;47.560;9.708;2023-12-28T11:48:48;14.48;;;11.10;;
31782;SDS011;18351;47.560;9.708;2023-12-28T11:51:14;19.33;;;11.18;;
31782;SDS011;18351;47.560;9.708;2023-12-28T11:53:39;17.38;;;11.40;;
31782;SDS011;18351;47.560;9.708;2023-12-28T11:56:07;16.63;;;10.70;;
31782;SDS011;18351;47.560;9.708;2023-12-28T11:58:34;19.48;;;13.40;;
31782;SDS011;18351;47.560;9.708;2023-12-28T12:01:01;13.07;;;9.52;;
31782;SDS011;18351;47.560;9.708;2023-12-28T12:03:27;14.18;;;9.43;;
31782;SDS011;18351;47.560;9.708;2023-12-28T12:05:55;15.38;;;9.68;;
31782;SDS011;18351;47.560;9.708;2023-12-28T12:08:22;17.00;;;10.50;;
31782;SDS011;18351;47.560;9.708;2023-12-28T12:10:48;12.45;;;9.55;;
31782;SDS011;18351;47.560;9.708;2023-12-28T12:13:24;14.27;;;9.90;;
31782;SDS011;18351;47.560;9.708;2023-12-28T12:15:50;15.98;;;10.15;;
31782;SDS011;18351;47.560;9.708;2023-12-28T12:18:16;14.20;;;9.88;;
31782;SDS011;18351;47.560;9.708;2023-12-28T12:20:42;15.85;;;10.18;;
31782;SDS011;18351;47.560;9.708;2023-12-28T12:23:08;12.52;;;8.75;;
31782;SDS011;18351;47.560;9.708;2023-12-28T12:25:33;12.27;;;8.98;;
31782;SDS011;18351;47.560;9.708;2023-12-28T12:27:59;15.63;;;8.98;;
31782;SDS011;18351;47.560;9.708;2023-12-28T12:30:24;11.43;;;8.60;;
31782;SDS011;18351;47.560;9.708;2023-12-28T12:32:50;13.50;;;9.68;;
31782;SDS011;18351;47.560;9.708;2023-12-28T12:35:16;17.40;;;9.95;;
31782;SDS011;18351;47.560;9.708;2023-12-28T12:37:42;13.35;;;9.60;;
31782;SDS011;18351;47.560;9.708;2023-12-28T12:40:08;14.35;;;10.00;;
31782;SDS011;18351;47.560;9.708;2023-12-28T12:42:35;17.15;;;11.48;;
31782;SDS011;18351;47.560;9.708;2023-12-28T12:45:00;19.60;;;12.15;;
31782;SDS011;18351;47.560;9.708;2023-12-28T12:47:31;17.17;;;11.75;;
31782;SDS011;18351;47.560;9.708;2023-12-28T12:49:58;23.38;;;14.75;;
31782;SDS011;18351;47.560;9.708;2023-12-28T12:52:25;20.85;;;13.40;;
31782;SDS011;18351;47.560;9.708;2023-12-28T12:54:54;14.48;;;10.02;;
31782;SDS011;18351;47.560;9.708;2023-12-28T12:57:26;13.77;;;9.73;;
31782;SDS011;18351;47.560;9.708;2023-12-28T12:59:52;14.05;;;9.80;;
31782;SDS011;18351;47.560;9.708;2023-12-28T13:02:18;16.27;;;9.38;;
31782;SDS011;18351;47.560;9.708;2023-12-28T13:04:47;17.38;;;13.45;;
31782;SDS011;18351;47.560;9.708;2023-12-28T13:07:12;15.77;;;11.25;;
31782;SDS011;18351;47.560;9.708;2023-12-28T13:09:38;11.57;;;9.27;;
31782;SDS011;18351;47.560;9.708;2023-12-28T13:12:03;10.20;;;7.88;;
31782;SDS011;18351;47.560;9.708;2023-12-28T13:14:29;10.93;;;8.38;;
31782;SDS011;18351;47.560;9.708;2023-12-28T13:16:55;12.77;;;8.98;;
31782;SDS011;18351;47.560;9.708;2023-12-28T13:19:20;12.60;;;9.02;;
31782;SDS011;18351;47.560;9.708;2023-12-28T13:21:46;14.75;;;10.23;;
31782;SDS011;18351;47.560;9.708;2023-12-28T13:24:12;13.95;;;10.85;;
31782;SDS011;18351;47.560;9.708;2023-12-28T13:26:37;16.48;;;11.27;;
31782;SDS011;18351;47.560;9.708;2023-12-28T13:29:03;23.80;;;12.93;;
31782;SDS011;18351;47.560;9.708;2023-12-28T13:31:28;21.83;;;12.27;;
31782;SDS011;18351;47.560;9.708;2023-12-28T13:33:54;15.77;;;10.80;;
31782;SDS011;18351;47.560;9.708;2023-12-28T13:36:20;14.07;;;10.32;;
31782;SDS011;18351;47.560;9.708;2023-12-28T13:38:45;15.25;;;11.18;;
31782;SDS011;18351;47.560;9.708;2023-12-28T13:41:11;11.30;;;9.43;;
31782;SDS011;18351;47.560;9.708;2023-12-28T13:43:37;12.13;;;9.82;;
31782;SDS011;18351;47.560;9.708;2023-12-28T13:46:02;12.65;;;9.93;;
31782;SDS011;18351;47.560;9.708;2023-12-28T13:48:29;13.50;;;10.23;;
31782;SDS011;18351;47.560;9.708;2023-12-28T13:50:55;16.15;;;10.52;;
31782;SDS011;18351;47.560;9.708;2023-12-28T13:53:21;14.95;;;11.20;;
31782;SDS011;18351;47.560;9.708;2023-12-28T13:55:46;17.48;;;12.25;;
31782;SDS011;18351;47.560;9.708;2023-12-28T13:58:12;15.73;;;12.07;;
31782;SDS011;18351;47.560;9.708;2023-12-28T14:00:37;17.45;;;12.02;;
31782;SDS011;18351;47.560;9.708;2023-12-28T14:03:04;15.50;;;11.90;;
31782;SDS011;18351;47.560;9.708;2023-12-28T14:05:29;17.23;;;12.80;;
31782;SDS011;18351;47.560;9.708;2023-12-28T14:07:56;17.13;;;12.32;;
31782;SDS011;18351;47.560;9.708;2023-12-28T14:10:22;16.83;;;12.57;;
31782;SDS011;18351;47.560;9.708;2023-12-28T14:12:47;16.33;;;12.65;;
31782;SDS011;18351;47.560;9.708;2023-12-28T14:15:13;17.30;;;13.43;;
31782;SDS011;18351;47.560;9.708;2023-12-28T14:17:41;16.23;;;12.43;;
31782;SDS011;18351;47.560;9.708;2023-12-28T14:20:07;18.80;;;13.98;;
31782;SDS011;18351;47.560;9.708;2023-12-28T14:22:36;21.30;;;16.70;;
31782;SDS011;18351;47.560;9.708;2023-12-28T14:25:03;37.67;;;23.38;;
31782;SDS011;18351;47.560;9.708;2023-12-28T14:27:29;36.85;;;24.20;;
31782;SDS011;18351;47.560;9.708;2023-12-28T14:29:55;23.70;;;17.33;;
31782;SDS011;18351;47.560;9.708;2023-12-28T14:32:21;22.88;;;17.23;;
31782;SDS011;18351;47.560;9.708;2023-12-28T14:34:47;20.95;;;15.45;;